sensor_id;sensor_type;location;lat;lon;timestamp;pressure;altitude;pressure_sealevel;temperature;humidity
58973;BME280;44750;52.040;7.472;2023-01-10T00:01:44;100179.56;;;6.54;0.00
58973;BME280;44750;52.040;7.472;2023-01-10T00:06:45;100190.06;;;6.57;0.00
58973;BME280;44750;52.040;7.472;2023-01-10T00:11:45;100183.09;;;6.45;0.00
58973;BME280;44750;52.040;7.472;2023-01-10T00:16:45;100206.19;;;6.47;0.00
58973;BME280;44750;52.040;7.472;2023-01-10T00:21:45;100207.88;;;6.39;0.00
58973;BME280;44750;52.040;7.472;2023-01-10T00:26:47;100228.50;;;6.38;0.00
58973;BME280;44750;52.040;7.472;2023-01-10T00:31:47;100241.50;;;6.33;0.00
58973;BME280;44750;52.040;7.472;2023-01-10T00:36:49;100252.25;;;6.23;0.00
58973;BME280;44750;52.040;7.472;2023-01-10T00:41:49;100274.47;;;6.25;0.00
58973;BME280;44750;52.040;7.472;2023-01-10T00:46:50;100281.81;;;6.23;0.00
58973;BME280;44750;52.040;7.472;2023-01-10T00:51:50;100286.59;;;6.19;0.00
58973;BME280;44750;52.040;7.472;2023-01-10T00:56:51;100292.66;;;6.12;0.00
58973;BME280;44750;52.040;7.472;2023-01-10T01:01:51;100261.94;;;5.83;0.00
58973;BME280;44750;52.040;7.472;2023-01-10T01:06:51;100286.03;;;5.95;0.00
58973;BME280;44750;52.040;7.472;2023-01-10T01:11:52;100287.63;;;5.76;0.00
58973;BME280;44750;52.040;7.472;2023-01-10T01:16:52;100313.94;;;5.82;0.00
58973;BME280;44750;52.040;7.472;2023-01-10T01:21:52;100334.88;;;5.79;0.00
58973;BME280;44750;52.040;7.472;2023-01-10T01:26:52;100328.13;;;5.63;0.50
58973;BME280;44750;52.040;7.472;2023-01-10T01:31:52;100361.63;;;5.69;0.00
58973;BME280;44750;52.040;7.472;2023-01-10T01:36:53;100374.63;;;5.64;0.00
58973;BME280;44750;52.040;7.472;2023-01-10T01:41:53;100402.53;;;5.73;0.00
58973;BME280;44750;52.040;7.472;2023-01-10T01:47:07;100408.63;;;5.75;0.00
58973;BME280;44750;52.040;7.472;2023-01-10T01:52:16;100425.31;;;5.78;0.00
58973;BME280;44750;52.040;7.472;2023-01-10T01:57:19;100439.00;;;5.86;0.00
58973;BME280;44750;52.040;7.472;2023-01-10T02:02:30;100426.66;;;5.84;0.42
58973;BME280;44750;52.040;7.472;2023-01-10T02:07:35;100410.66;;;5.82;1.38
58973;BME280;44750;52.040;7.472;2023-01-10T02:12:36;100388.13;;;5.74;2.97
58973;BME280;44750;52.040;7.472;2023-01-10T02:17:37;100400.72;;;5.73;3.73
58973;BME280;44750;52.040;7.472;2023-01-10T02:22:58;100389.50;;;5.68;5.01
58973;BME280;44750;52.040;7.472;2023-01-10T02:33:33;100387.78;;;5.67;6.58
58973;BME280;44750;52.040;7.472;2023-01-10T02:38:48;100395.84;;;5.67;7.16
58973;BME280;44750;52.040;7.472;2023-01-10T02:44:16;100397.75;;;5.76;6.02
58973;BME280;44750;52.040;7.472;2023-01-10T02:49:18;100396.88;;;5.76;6.54
58973;BME280;44750;52.040;7.472;2023-01-10T02:54:26;100380.00;;;5.64;7.03
58973;BME280;44750;52.040;7.472;2023-01-10T02:59:38;100362.31;;;5.61;7.51
58973;BME280;44750;52.040;7.472;2023-01-10T03:10:23;100351.75;;;5.48;7.70
58973;BME280;44750;52.040;7.472;2023-01-10T03:15:28;100373.50;;;5.45;7.94
58973;BME280;44750;52.040;7.472;2023-01-10T03:20:32;100365.13;;;5.27;8.03
58973;BME280;44750;52.040;7.472;2023-01-10T04:05:00;100481.41;;;5.16;2.67
58973;BME280;44750;52.040;7.472;2023-01-10T04:10:03;100513.34;;;5.19;1.55
58973;BME280;44750;52.040;7.472;2023-01-10T04:15:04;100528.34;;;5.22;1.42
58973;BME280;44750;52.040;7.472;2023-01-10T04:20:04;100542.88;;;5.19;1.51
58973;BME280;44750;52.040;7.472;2023-01-10T04:25:05;100538.59;;;5.17;1.62
58973;BME280;44750;52.040;7.472;2023-01-10T04:30:06;100546.78;;;5.15;1.80
58973;BME280;44750;52.040;7.472;2023-01-10T04:35:07;100565.94;;;5.11;2.30
58973;BME280;44750;52.040;7.472;2023-01-10T04:40:09;100562.88;;;5.04;2.45
58973;BME280;44750;52.040;7.472;2023-01-10T04:45:10;100570.06;;;5.03;1.70
58973;BME280;44750;52.040;7.472;2023-01-10T04:50:10;100567.38;;;5.03;1.52
58973;BME280;44750;52.040;7.472;2023-01-10T04:55:10;100602.78;;;5.20;0.63
58973;BME280;44750;52.040;7.472;2023-01-10T05:00:11;100600.69;;;5.12;1.68
58973;BME280;44750;52.040;7.472;2023-01-10T05:05:12;100614.81;;;5.14;1.52
58973;BME280;44750;52.040;7.472;2023-01-10T05:10:13;100596.75;;;5.05;2.09
58973;BME280;44750;52.040;7.472;2023-01-10T05:15:13;100620.44;;;5.11;1.96
58973;BME280;44750;52.040;7.472;2023-01-10T05:20:13;100629.59;;;5.09;1.73
58973;BME280;44750;52.040;7.472;2023-01-10T05:25:14;100641.28;;;5.08;0.69
58973;BME280;44750;52.040;7.472;2023-01-10T05:30:14;100653.09;;;5.05;1.32
58973;BME280;44750;52.040;7.472;2023-01-10T05:35:14;100668.97;;;5.08;1.37
58973;BME280;44750;52.040;7.472;2023-01-10T05:40:15;100674.81;;;5.02;1.44
58973;BME280;44750;52.040;7.472;2023-01-10T05:45:15;100695.94;;;5.07;0.05
58973;BME280;44750;52.040;7.472;2023-01-10T05:50:15;100721.06;;;5.17;0.00
58973;BME280;44750;52.040;7.472;2023-01-10T05:55:16;100730.97;;;5.16;0.00
58973;BME280;44750;52.040;7.472;2023-01-10T06:00:16;100749.00;;;5.14;0.00
58973;BME280;44750;52.040;7.472;2023-01-10T06:05:17;100773.66;;;5.19;0.00
58973;BME280;44750;52.040;7.472;2023-01-10T06:10:17;100785.00;;;5.23;0.00
58973;BME280;44750;52.040;7.472;2023-01-10T06:15:17;100805.91;;;5.31;0.00
58973;BME280;44750;52.040;7.472;2023-01-10T06:20:17;100827.03;;;5.35;0.00
58973;BME280;44750;52.040;7.472;2023-01-10T06:25:18;100837.75;;;5.35;0.00
58973;BME280;44750;52.040;7.472;2023-01-10T06:30:18;100852.78;;;5.38;0.00
58973;BME280;44750;52.040;7.472;2023-01-10T06:35:18;100837.16;;;5.32;0.00
58973;BME280;44750;52.040;7.472;2023-01-10T06:40:19;100836.41;;;5.30;0.00
58973;BME280;44750;52.040;7.472;2023-01-10T06:45:19;100851.53;;;5.31;0.00
58973;BME280;44750;52.040;7.472;2023-01-10T06:50:20;100851.28;;;5.23;0.00
58973;BME280;44750;52.040;7.472;2023-01-10T06:55:20;100879.78;;;5.24;0.00
58973;BME280;44750;52.040;7.472;2023-01-10T07:00:21;100878.50;;;5.29;0.00
58973;BME280;44750;52.040;7.472;2023-01-10T07:05:21;100869.66;;;5.16;0.00
58973;BME280;44750;52.040;7.472;2023-01-10T07:10:22;100870.75;;;5.13;0.00
58973;BME280;44750;52.040;7.472;2023-01-10T07:15:22;100882.19;;;5.15;0.00
58973;BME280;44750;52.040;7.472;2023-01-10T07:20:22;100863.88;;;5.09;0.00
58973;BME280;44750;52.040;7.472;2023-01-10T07:25:23;100900.13;;;5.15;0.00
58973;BME280;44750;52.040;7.472;2023-01-10T07:30:24;100932.75;;;5.22;0.00
58973;BME280;44750;52.040;7.472;2023-01-10T07:35:24;100931.03;;;5.21;0.00
58973;BME280;44750;52.040;7.472;2023-01-10T07:40:25;100925.13;;;5.15;0.00
58973;BME280;44750;52.040;7.472;2023-01-10T07:45:27;100963.41;;;5.30;0.00
58973;BME280;44750;52.040;7.472;2023-01-10T07:50:29;100968.22;;;5.38;0.00
58973;BME280;44750;52.040;7.472;2023-01-10T07:55:30;100971.00;;;5.36;0.00
58973;BME280;44750;52.040;7.472;2023-01-10T08:00:30;100957.94;;;5.32;0.00
58973;BME280;44750;52.040;7.472;2023-01-10T08:05:31;100966.00;;;5.32;0.00
58973;BME280;44750;52.040;7.472;2023-01-10T08:10:32;100975.41;;;5.38;0.00
58973;BME280;44750;52.040;7.472;2023-01-10T08:15:33;100974.94;;;5.44;0.00
58973;BME280;44750;52.040;7.472;2023-01-10T08:20:33;100967.88;;;5.43;0.00
58973;BME280;44750;52.040;7.472;2023-01-10T08:25:34;100955.44;;;5.42;0.00
58973;BME280;44750;52.040;7.472;2023-01-10T08:30:34;100947.13;;;5.45;0.00
58973;BME280;44750;52.040;7.472;2023-01-10T08:35:41;100947.03;;;5.46;0.00
58973;BME280;44750;52.040;7.472;2023-01-10T08:40:41;100898.13;;;5.30;1.51
58973;BME280;44750;52.040;7.472;2023-01-10T08:45:42;100904.88;;;5.35;2.16
58973;BME280;44750;52.040;7.472;2023-01-10T08:50:42;100882.59;;;5.22;3.30
58973;BME280;44750;52.040;7.472;2023-01-10T08:55:42;100913.91;;;5.34;2.84
58973;BME280;44750;52.040;7.472;2023-01-10T09:00:42;100906.94;;;5.32;3.77
58973;BME280;44750;52.040;7.472;2023-01-10T09:05:42;100915.28;;;5.40;3.38
58973;BME280;44750;52.040;7.472;2023-01-10T09:10:43;100906.03;;;5.44;4.05
58973;BME280;44750;52.040;7.472;2023-01-10T09:15:43;100922.41;;;5.52;4.36
58973;BME280;44750;52.040;7.472;2023-01-10T09:20:43;100909.63;;;5.56;4.45
58973;BME280;44750;52.040;7.472;2023-01-10T09:25:44;100951.34;;;5.84;3.33
58973;BME280;44750;52.040;7.472;2023-01-10T09:30:45;100954.50;;;6.02;3.57
58973;BME280;44750;52.040;7.472;2023-01-10T09:35:45;100924.53;;;5.96;5.66
58973;BME280;44750;52.040;7.472;2023-01-10T09:41:05;100924.81;;;6.04;6.82
58973;BME280;44750;52.040;7.472;2023-01-10T09:51:35;100900.97;;;5.99;9.61
58973;BME280;44750;52.040;7.472;2023-01-10T09:56:39;100895.72;;;5.98;10.49
58973;BME280;44750;52.040;7.472;2023-01-10T10:01:39;100875.53;;;5.92;11.28
58973;BME280;44750;52.040;7.472;2023-01-10T10:06:39;100859.28;;;5.94;12.05
58973;BME280;44750;52.040;7.472;2023-01-10T10:11:48;100875.47;;;6.16;11.38
58973;BME280;44750;52.040;7.472;2023-01-10T10:27:30;100833.59;;;6.48;15.68
58973;BME280;44750;52.040;7.472;2023-01-10T10:37:49;100766.94;;;6.51;20.96
58973;BME280;44750;52.040;7.472;2023-01-10T10:42:53;100769.09;;;6.69;21.69
58973;BME280;44750;52.040;7.472;2023-01-10T10:48:11;100765.63;;;6.90;22.72
58973;BME280;44750;52.040;7.472;2023-01-10T10:53:15;100735.03;;;6.91;26.08
58973;BME280;44750;52.040;7.472;2023-01-10T10:58:16;100691.97;;;6.91;28.89
58973;BME280;44750;52.040;7.472;2023-01-10T11:03:26;100675.28;;;6.97;31.93
58973;BME280;44750;52.040;7.472;2023-01-10T11:08:28;100658.38;;;7.06;34.45
58973;BME280;44750;52.040;7.472;2023-01-10T11:18:32;100590.38;;;7.04;38.26
58973;BME280;44750;52.040;7.472;2023-01-10T11:23:37;100557.78;;;7.07;40.81
58973;BME280;44750;52.040;7.472;2023-01-10T11:28:40;100526.03;;;7.01;43.62
58973;BME280;44750;52.040;7.472;2023-01-10T11:33:41;100511.59;;;7.02;44.74
58973;BME280;44750;52.040;7.472;2023-01-10T11:38:42;100511.50;;;7.13;45.51
58973;BME280;44750;52.040;7.472;2023-01-10T11:43:42;100486.38;;;7.03;47.26
58973;BME280;44750;52.040;7.472;2023-01-10T11:49:07;100481.63;;;7.16;48.22
58973;BME280;44750;52.040;7.472;2023-01-10T11:54:14;100477.66;;;7.20;48.78
58973;BME280;44750;52.040;7.472;2023-01-10T11:59:16;100448.72;;;7.13;50.52
58973;BME280;44750;52.040;7.472;2023-01-10T12:04:18;100403.94;;;7.02;54.27
58973;BME280;44750;52.040;7.472;2023-01-10T12:14:40;100404.81;;;7.12;57.62
58973;BME280;44750;52.040;7.472;2023-01-10T12:19:40;100377.63;;;7.15;58.99
58973;BME280;44750;52.040;7.472;2023-01-10T12:24:46;100359.47;;;7.08;61.25
58973;BME280;44750;52.040;7.472;2023-01-10T12:30:03;100352.94;;;7.10;63.07
58973;BME280;44750;52.040;7.472;2023-01-10T12:35:16;100332.28;;;7.11;64.95
58973;BME280;44750;52.040;7.472;2023-01-10T12:40:32;100335.41;;;7.16;66.38
58973;BME280;44750;52.040;7.472;2023-01-10T12:45:42;100302.81;;;7.29;67.14
58973;BME280;44750;52.040;7.472;2023-01-10T12:50:50;100272.78;;;7.24;69.34
58973;BME280;44750;52.040;7.472;2023-01-10T12:56:02;100264.41;;;7.17;71.47
58973;BME280;44750;52.040;7.472;2023-01-10T13:01:05;100241.63;;;7.11;73.08
58973;BME280;44750;52.040;7.472;2023-01-10T13:06:06;100227.16;;;7.12;73.68
58973;BME280;44750;52.040;7.472;2023-01-10T13:11:11;100228.88;;;7.13;74.68
58973;BME280;44750;52.040;7.472;2023-01-10T13:16:35;100217.97;;;7.15;75.44
58973;BME280;44750;52.040;7.472;2023-01-10T13:21:41;100189.91;;;7.08;75.70
58973;BME280;44750;52.040;7.472;2023-01-10T13:26:51;100191.19;;;7.13;76.50
58973;BME280;44750;52.040;7.472;2023-01-10T13:31:53;100201.09;;;7.23;76.45
58973;BME280;44750;52.040;7.472;2023-01-10T13:36:57;100180.13;;;7.16;78.25
58973;BME280;44750;52.040;7.472;2023-01-10T13:46:59;100162.28;;;7.15;80.29
58973;BME280;44750;52.040;7.472;2023-01-10T13:52:29;100133.66;;;7.14;80.97
58973;BME280;44750;52.040;7.472;2023-01-10T13:57:57;100129.97;;;7.15;81.68
58973;BME280;44750;52.040;7.472;2023-01-10T14:02:57;100095.72;;;7.08;82.64
58973;BME280;44750;52.040;7.472;2023-01-10T14:07:58;100104.75;;;7.16;83.22
58973;BME280;44750;52.040;7.472;2023-01-10T14:13:01;100095.25;;;7.22;83.52
58973;BME280;44750;52.040;7.472;2023-01-10T14:18:14;100093.56;;;7.21;84.44
58973;BME280;44750;52.040;7.472;2023-01-10T14:23:28;100086.34;;;7.22;85.24
58973;BME280;44750;52.040;7.472;2023-01-10T14:28:32;100075.72;;;7.20;85.62
58973;BME280;44750;52.040;7.472;2023-01-10T14:33:35;100067.34;;;7.23;86.36
58973;BME280;44750;52.040;7.472;2023-01-10T14:38:37;100057.13;;;7.27;87.80
58973;BME280;44750;52.040;7.472;2023-01-10T14:49:19;100026.53;;;7.28;89.70
58973;BME280;44750;52.040;7.472;2023-01-10T14:54:20;100008.94;;;7.24;91.36
58973;BME280;44750;52.040;7.472;2023-01-10T14:59:27;99995.97;;;7.19;92.46
58973;BME280;44750;52.040;7.472;2023-01-10T15:04:30;100005.00;;;7.28;93.58
58973;BME280;44750;52.040;7.472;2023-01-10T15:09:31;99981.50;;;7.20;95.07
58973;BME280;44750;52.040;7.472;2023-01-10T15:14:32;99980.06;;;7.26;96.77
58973;BME280;44750;52.040;7.472;2023-01-10T15:19:37;99966.59;;;7.26;98.32
58973;BME280;44750;52.040;7.472;2023-01-10T15:24:38;99951.44;;;7.25;99.86
58973;BME280;44750;52.040;7.472;2023-01-10T15:29:40;99951.59;;;7.23;100.00
58973;BME280;44750;52.040;7.472;2023-01-10T15:34:40;99943.50;;;7.23;100.00
58973;BME280;44750;52.040;7.472;2023-01-10T15:39:44;99912.81;;;7.16;100.00
58973;BME280;44750;52.040;7.472;2023-01-10T15:44:50;99905.66;;;7.25;100.00
58973;BME280;44750;52.040;7.472;2023-01-10T15:49:52;99894.22;;;7.23;100.00
58973;BME280;44750;52.040;7.472;2023-01-10T15:54:52;99861.94;;;7.23;100.00
58973;BME280;44750;52.040;7.472;2023-01-10T15:59:53;99864.69;;;7.31;100.00
58973;BME280;44750;52.040;7.472;2023-01-10T16:05:07;99812.31;;;7.25;100.00
58973;BME280;44750;52.040;7.472;2023-01-10T16:10:24;99795.03;;;7.28;100.00
58973;BME280;44750;52.040;7.472;2023-01-10T16:15:27;99771.41;;;7.22;100.00
58973;BME280;44750;52.040;7.472;2023-01-10T16:20:30;99751.84;;;7.19;100.00
58973;BME280;44750;52.040;7.472;2023-01-10T16:25:34;99733.16;;;7.18;100.00
58973;BME280;44750;52.040;7.472;2023-01-10T16:30:36;99715.47;;;7.15;100.00
58973;BME280;44750;52.040;7.472;2023-01-10T16:35:36;99704.34;;;7.10;100.00
58973;BME280;44750;52.040;7.472;2023-01-10T16:40:39;99691.38;;;7.06;100.00
58973;BME280;44750;52.040;7.472;2023-01-10T16:45:39;99668.63;;;7.00;100.00
58973;BME280;44750;52.040;7.472;2023-01-10T16:50:40;99671.47;;;6.98;100.00
58973;BME280;44750;52.040;7.472;2023-01-10T16:55:46;99677.19;;;7.03;100.00
58973;BME280;44750;52.040;7.472;2023-01-10T17:00:49;99666.94;;;6.99;100.00
58973;BME280;44750;52.040;7.472;2023-01-10T17:05:50;99658.84;;;6.99;100.00
58973;BME280;44750;52.040;7.472;2023-01-10T17:10:55;99630.56;;;6.95;100.00
58973;BME280;44750;52.040;7.472;2023-01-10T17:15:58;99652.94;;;6.95;100.00
58973;BME280;44750;52.040;7.472;2023-01-10T17:20:59;99637.34;;;6.81;100.00
58973;BME280;44750;52.040;7.472;2023-01-10T17:26:03;99667.09;;;6.79;100.00
58973;BME280;44750;52.040;7.472;2023-01-10T17:31:04;99698.06;;;6.65;100.00
58973;BME280;44750;52.040;7.472;2023-01-10T17:36:05;99711.78;;;6.44;100.00
58973;BME280;44750;52.040;7.472;2023-01-10T17:41:05;99744.34;;;6.41;100.00
58973;BME280;44750;52.040;7.472;2023-01-10T17:46:05;99768.56;;;6.31;100.00
58973;BME280;44750;52.040;7.472;2023-01-10T17:51:05;99784.75;;;6.22;100.00
58973;BME280;44750;52.040;7.472;2023-01-10T17:56:06;99809.00;;;6.12;99.73
58973;BME280;44750;52.040;7.472;2023-01-10T18:01:15;99837.41;;;6.05;92.60
58973;BME280;44750;52.040;7.472;2023-01-10T18:06:17;99849.88;;;5.96;85.94
58973;BME280;44750;52.040;7.472;2023-01-10T18:11:17;99871.63;;;5.93;78.57
58973;BME280;44750;52.040;7.472;2023-01-10T18:16:17;99901.16;;;5.93;71.54
58973;BME280;44750;52.040;7.472;2023-01-10T18:21:18;99896.50;;;5.85;65.46
58973;BME280;44750;52.040;7.472;2023-01-10T18:26:18;99917.16;;;5.84;59.07
58973;BME280;44750;52.040;7.472;2023-01-10T18:31:18;99923.25;;;5.86;52.79
58973;BME280;44750;52.040;7.472;2023-01-10T18:36:20;99923.50;;;5.83;47.88
58973;BME280;44750;52.040;7.472;2023-01-10T18:41:21;99925.22;;;5.84;42.67
58973;BME280;44750;52.040;7.472;2023-01-10T18:46:21;99936.78;;;5.85;37.69
58973;BME280;44750;52.040;7.472;2023-01-10T18:51:22;99946.28;;;5.79;33.13
58973;BME280;44750;52.040;7.472;2023-01-10T18:56:22;99985.44;;;5.82;27.50
58973;BME280;44750;52.040;7.472;2023-01-10T19:01:22;99979.91;;;5.83;22.17
58973;BME280;44750;52.040;7.472;2023-01-10T19:06:23;100011.75;;;5.88;17.71
58973;BME280;44750;52.040;7.472;2023-01-10T19:11:23;100009.19;;;5.86;14.31
58973;BME280;44750;52.040;7.472;2023-01-10T19:16:26;100041.44;;;5.86;9.80
58973;BME280;44750;52.040;7.472;2023-01-10T19:21:27;100051.16;;;5.88;5.95
58973;BME280;44750;52.040;7.472;2023-01-10T19:26:28;100054.97;;;5.85;2.31
58973;BME280;44750;52.040;7.472;2023-01-10T19:31:29;100054.88;;;5.86;0.00
58973;BME280;44750;52.040;7.472;2023-01-10T19:36:29;100079.72;;;5.89;0.00
58973;BME280;44750;52.040;7.472;2023-01-10T19:41:29;100062.91;;;5.86;0.00
58973;BME280;44750;52.040;7.472;2023-01-10T19:46:29;100083.13;;;5.91;0.00
58973;BME280;44750;52.040;7.472;2023-01-10T19:51:30;100099.69;;;5.96;0.00
58973;BME280;44750;52.040;7.472;2023-01-10T19:56:30;100103.84;;;6.00;0.00
58973;BME280;44750;52.040;7.472;2023-01-10T20:01:31;100102.28;;;6.07;0.00
58973;BME280;44750;52.040;7.472;2023-01-10T20:06:37;100092.81;;;6.03;0.00
58973;BME280;44750;52.040;7.472;2023-01-10T20:11:38;100132.72;;;6.17;0.00
58973;BME280;44750;52.040;7.472;2023-01-10T20:16:38;100143.19;;;6.21;0.00
58973;BME280;44750;52.040;7.472;2023-01-10T20:21:40;100167.94;;;6.24;0.00
58973;BME280;44750;52.040;7.472;2023-01-10T20:26:41;100157.63;;;6.29;0.00
58973;BME280;44750;52.040;7.472;2023-01-10T20:31:42;100164.81;;;6.29;0.00
58973;BME280;44750;52.040;7.472;2023-01-10T20:36:43;100153.94;;;6.30;0.00
58973;BME280;44750;52.040;7.472;2023-01-10T20:41:43;100164.28;;;6.35;0.00
58973;BME280;44750;52.040;7.472;2023-01-10T20:46:43;100155.25;;;6.36;0.00
58973;BME280;44750;52.040;7.472;2023-01-10T20:51:44;100161.88;;;6.42;0.00
58973;BME280;44750;52.040;7.472;2023-01-10T20:56:44;100169.13;;;6.41;0.00
58973;BME280;44750;52.040;7.472;2023-01-10T21:01:44;100147.88;;;6.28;0.00
58973;BME280;44750;52.040;7.472;2023-01-10T21:06:45;100185.19;;;6.31;0.00
58973;BME280;44750;52.040;7.472;2023-01-10T21:11:45;100199.22;;;6.35;0.00
58973;BME280;44750;52.040;7.472;2023-01-10T21:16:45;100192.72;;;6.28;0.00
58973;BME280;44750;52.040;7.472;2023-01-10T21:21:45;100195.53;;;6.26;0.00
58973;BME280;44750;52.040;7.472;2023-01-10T21:26:46;100216.47;;;6.32;0.00
58973;BME280;44750;52.040;7.472;2023-01-10T21:31:46;100237.69;;;6.35;0.00
58973;BME280;44750;52.040;7.472;2023-01-10T21:36:46;100265.00;;;6.31;0.00
58973;BME280;44750;52.040;7.472;2023-01-10T21:41:46;100250.44;;;6.33;0.00
58973;BME280;44750;52.040;7.472;2023-01-10T21:46:47;100274.50;;;6.35;0.00
58973;BME280;44750;52.040;7.472;2023-01-10T21:51:47;100302.81;;;6.39;0.00
58973;BME280;44750;52.040;7.472;2023-01-10T21:56:47;100326.19;;;6.48;0.00
58973;BME280;44750;52.040;7.472;2023-01-10T22:01:48;100340.38;;;6.50;0.00
58973;BME280;44750;52.040;7.472;2023-01-10T22:06:48;100352.28;;;6.58;0.00
58973;BME280;44750;52.040;7.472;2023-01-10T22:11:48;100367.00;;;6.63;0.00
58973;BME280;44750;52.040;7.472;2023-01-10T22:16:48;100373.66;;;6.69;0.00
58973;BME280;44750;52.040;7.472;2023-01-10T22:21:49;100371.72;;;6.71;0.00
58973;BME280;44750;52.040;7.472;2023-01-10T22:26:49;100373.84;;;6.77;0.00
58973;BME280;44750;52.040;7.472;2023-01-10T22:31:49;100398.22;;;6.85;0.00
58973;BME280;44750;52.040;7.472;2023-01-10T22:36:50;100399.66;;;6.90;0.00
58973;BME280;44750;52.040;7.472;2023-01-10T22:41:50;100399.66;;;6.90;0.00
58973;BME280;44750;52.040;7.472;2023-01-10T22:46:52;100415.97;;;6.98;0.00
58973;BME280;44750;52.040;7.472;2023-01-10T22:51:53;100422.34;;;6.97;0.00
58973;BME280;44750;52.040;7.472;2023-01-10T22:56:53;100433.09;;;6.97;0.00
58973;BME280;44750;52.040;7.472;2023-01-10T23:01:53;100462.75;;;7.07;0.00
58973;BME280;44750;52.040;7.472;2023-01-10T23:06:53;100471.66;;;7.07;0.00
58973;BME280;44750;52.040;7.472;2023-01-10T23:11:53;100486.16;;;7.16;0.00
58973;BME280;44750;52.040;7.472;2023-01-10T23:16:54;100481.06;;;7.23;0.00
58973;BME280;44750;52.040;7.472;2023-01-10T23:21:54;100479.75;;;7.17;0.00
58973;BME280;44750;52.040;7.472;2023-01-10T23:26:55;100503.63;;;7.31;0.00
58973;BME280;44750;52.040;7.472;2023-01-10T23:31:55;100524.19;;;7.42;0.00
58973;BME280;44750;52.040;7.472;2023-01-10T23:36:55;100525.47;;;7.38;0.00
58973;BME280;44750;52.040;7.472;2023-01-10T23:41:55;100547.91;;;7.48;0.00
58973;BME280;44750;52.040;7.472;2023-01-10T23:46:56;100558.25;;;7.53;0.00
58973;BME280;44750;52.040;7.472;2023-01-10T23:51:56;100561.66;;;7.55;0.00
58973;BME280;44750;52.040;7.472;2023-01-10T23:56:56;100560.00;;;7.64;0.00
